sensor_id;sensor_type;location;lat;lon;timestamp;temperature;humidity
47338;DHT22;33069;51.970;5.892;2022-12-31T00:02:05;12.90;90.00
47338;DHT22;33069;51.970;5.892;2022-12-31T00:04:31;12.90;90.00
47338;DHT22;33069;51.970;5.892;2022-12-31T00:06:56;12.90;90.00
47338;DHT22;33069;51.970;5.892;2022-12-31T00:09:22;12.80;89.90
47338;DHT22;33069;51.970;5.892;2022-12-31T00:11:48;12.80;90.00
47338;DHT22;33069;51.970;5.892;2022-12-31T00:14:14;12.80;90.00
47338;DHT22;33069;51.970;5.892;2022-12-31T00:16:40;12.90;90.20
47338;DHT22;33069;51.970;5.892;2022-12-31T00:19:09;12.90;90.20
47338;DHT22;33069;51.970;5.892;2022-12-31T00:21:36;12.80;90.20
47338;DHT22;33069;51.970;5.892;2022-12-31T00:24:03;12.80;90.20
47338;DHT22;33069;51.970;5.892;2022-12-31T00:26:31;12.80;90.10
47338;DHT22;33069;51.970;5.892;2022-12-31T00:28:58;12.70;89.90
47338;DHT22;33069;51.970;5.892;2022-12-31T00:31:30;12.80;89.90
47338;DHT22;33069;51.970;5.892;2022-12-31T00:33:56;12.60;89.60
47338;DHT22;33069;51.970;5.892;2022-12-31T00:36:27;12.50;89.80
47338;DHT22;33069;51.970;5.892;2022-12-31T00:38:55;12.60;90.20
47338;DHT22;33069;51.970;5.892;2022-12-31T00:41:21;12.50;90.20
47338;DHT22;33069;51.970;5.892;2022-12-31T00:43:48;12.50;90.40
47338;DHT22;33069;51.970;5.892;2022-12-31T00:46:14;12.50;90.60
47338;DHT22;33069;51.970;5.892;2022-12-31T00:48:41;12.30;90.70
47338;DHT22;33069;51.970;5.892;2022-12-31T00:51:08;12.50;91.00
47338;DHT22;33069;51.970;5.892;2022-12-31T00:53:35;12.50;91.10
47338;DHT22;33069;51.970;5.892;2022-12-31T00:56:03;12.40;91.00
47338;DHT22;33069;51.970;5.892;2022-12-31T00:58:29;12.30;91.00
47338;DHT22;33069;51.970;5.892;2022-12-31T01:00:55;12.30;91.00
47338;DHT22;33069;51.970;5.892;2022-12-31T01:03:21;12.30;90.80
47338;DHT22;33069;51.970;5.892;2022-12-31T01:05:47;12.30;90.80
47338;DHT22;33069;51.970;5.892;2022-12-31T01:08:12;12.20;90.80
47338;DHT22;33069;51.970;5.892;2022-12-31T01:10:38;12.20;90.90
47338;DHT22;33069;51.970;5.892;2022-12-31T01:13:27;12.30;91.10
47338;DHT22;33069;51.970;5.892;2022-12-31T01:15:52;12.20;91.00
47338;DHT22;33069;51.970;5.892;2022-12-31T01:18:18;12.20;91.10
47338;DHT22;33069;51.970;5.892;2022-12-31T01:20:44;12.20;91.20
47338;DHT22;33069;51.970;5.892;2022-12-31T01:23:10;12.20;91.20
47338;DHT22;33069;51.970;5.892;2022-12-31T01:25:39;12.10;91.20
47338;DHT22;33069;51.970;5.892;2022-12-31T01:28:08;12.10;91.10
47338;DHT22;33069;51.970;5.892;2022-12-31T01:30:37;12.00;91.10
47338;DHT22;33069;51.970;5.892;2022-12-31T01:33:03;12.00;91.20
47338;DHT22;33069;51.970;5.892;2022-12-31T01:35:29;12.10;91.20
47338;DHT22;33069;51.970;5.892;2022-12-31T01:37:55;11.90;91.20
47338;DHT22;33069;51.970;5.892;2022-12-31T01:40:20;11.90;91.20
47338;DHT22;33069;51.970;5.892;2022-12-31T01:42:56;12.10;91.30
47338;DHT22;33069;51.970;5.892;2022-12-31T01:45:22;12.00;91.20
47338;DHT22;33069;51.970;5.892;2022-12-31T01:47:51;11.80;91.20
47338;DHT22;33069;51.970;5.892;2022-12-31T01:50:29;12.10;91.40
47338;DHT22;33069;51.970;5.892;2022-12-31T01:52:59;12.00;91.40
47338;DHT22;33069;51.970;5.892;2022-12-31T01:55:41;12.20;91.40
47338;DHT22;33069;51.970;5.892;2022-12-31T01:58:21;11.80;91.20
47338;DHT22;33069;51.970;5.892;2022-12-31T02:00:48;12.00;91.30
47338;DHT22;33069;51.970;5.892;2022-12-31T02:03:14;12.10;91.30
47338;DHT22;33069;51.970;5.892;2022-12-31T02:05:53;12.00;91.20
47338;DHT22;33069;51.970;5.892;2022-12-31T02:08:20;11.90;91.20
47338;DHT22;33069;51.970;5.892;2022-12-31T02:10:46;12.00;91.30
47338;DHT22;33069;51.970;5.892;2022-12-31T02:13:12;12.00;91.30
47338;DHT22;33069;51.970;5.892;2022-12-31T02:24:05;11.80;91.40
47338;DHT22;33069;51.970;5.892;2022-12-31T02:32:11;12.00;91.50
47338;DHT22;33069;51.970;5.892;2022-12-31T02:35:02;11.80;91.40
47338;DHT22;33069;51.970;5.892;2022-12-31T02:37:31;11.80;91.50
47338;DHT22;33069;51.970;5.892;2022-12-31T02:39:58;11.80;91.50
47338;DHT22;33069;51.970;5.892;2022-12-31T02:42:24;11.80;91.50
47338;DHT22;33069;51.970;5.892;2022-12-31T02:44:50;12.00;91.70
47338;DHT22;33069;51.970;5.892;2022-12-31T02:48:19;11.90;91.60
47338;DHT22;33069;51.970;5.892;2022-12-31T02:54:05;12.00;91.30
47338;DHT22;33069;51.970;5.892;2022-12-31T02:57:12;11.90;91.10
47338;DHT22;33069;51.970;5.892;2022-12-31T02:59:32;11.90;91.20
47338;DHT22;33069;51.970;5.892;2022-12-31T03:02:18;12.00;91.20
47338;DHT22;33069;51.970;5.892;2022-12-31T03:04:51;12.00;91.20
47338;DHT22;33069;51.970;5.892;2022-12-31T03:07:28;12.00;91.20
47338;DHT22;33069;51.970;5.892;2022-12-31T03:09:55;11.90;91.20
47338;DHT22;33069;51.970;5.892;2022-12-31T03:12:27;11.70;91.10
47338;DHT22;33069;51.970;5.892;2022-12-31T03:15:19;11.50;91.10
47338;DHT22;33069;51.970;5.892;2022-12-31T03:17:50;11.70;91.30
47338;DHT22;33069;51.970;5.892;2022-12-31T03:20:17;11.70;91.30
47338;DHT22;33069;51.970;5.892;2022-12-31T03:23:04;11.80;91.40
47338;DHT22;33069;51.970;5.892;2022-12-31T03:25:31;11.70;91.30
47338;DHT22;33069;51.970;5.892;2022-12-31T03:28:01;11.60;91.40
47338;DHT22;33069;51.970;5.892;2022-12-31T03:30:28;11.80;91.40
47338;DHT22;33069;51.970;5.892;2022-12-31T03:32:55;11.60;91.30
47338;DHT22;33069;51.970;5.892;2022-12-31T03:35:21;11.60;91.30
47338;DHT22;33069;51.970;5.892;2022-12-31T03:37:48;11.60;91.30
47338;DHT22;33069;51.970;5.892;2022-12-31T03:40:15;11.50;91.40
47338;DHT22;33069;51.970;5.892;2022-12-31T03:42:42;11.70;91.40
47338;DHT22;33069;51.970;5.892;2022-12-31T03:45:09;11.70;91.50
47338;DHT22;33069;51.970;5.892;2022-12-31T03:47:35;11.70;91.50
47338;DHT22;33069;51.970;5.892;2022-12-31T03:50:01;11.70;91.50
47338;DHT22;33069;51.970;5.892;2022-12-31T03:52:27;11.60;91.40
47338;DHT22;33069;51.970;5.892;2022-12-31T03:54:52;11.70;91.50
47338;DHT22;33069;51.970;5.892;2022-12-31T03:57:18;11.70;91.50
47338;DHT22;33069;51.970;5.892;2022-12-31T03:59:44;11.90;91.60
47338;DHT22;33069;51.970;5.892;2022-12-31T04:02:09;11.50;91.50
47338;DHT22;33069;51.970;5.892;2022-12-31T04:04:35;11.40;91.50
47338;DHT22;33069;51.970;5.892;2022-12-31T04:07:01;11.50;91.60
47338;DHT22;33069;51.970;5.892;2022-12-31T04:09:27;11.50;91.60
47338;DHT22;33069;51.970;5.892;2022-12-31T04:11:52;11.70;91.70
47338;DHT22;33069;51.970;5.892;2022-12-31T04:14:18;11.80;91.80
47338;DHT22;33069;51.970;5.892;2022-12-31T04:16:44;11.70;91.80
47338;DHT22;33069;51.970;5.892;2022-12-31T04:19:10;11.60;91.80
47338;DHT22;33069;51.970;5.892;2022-12-31T04:21:36;11.70;91.80
47338;DHT22;33069;51.970;5.892;2022-12-31T04:24:02;11.80;91.80
47338;DHT22;33069;51.970;5.892;2022-12-31T04:26:28;11.60;91.60
47338;DHT22;33069;51.970;5.892;2022-12-31T04:28:54;11.80;91.70
47338;DHT22;33069;51.970;5.892;2022-12-31T04:31:20;11.90;91.80
47338;DHT22;33069;51.970;5.892;2022-12-31T04:33:46;11.60;91.60
47338;DHT22;33069;51.970;5.892;2022-12-31T04:36:11;11.50;91.60
47338;DHT22;33069;51.970;5.892;2022-12-31T04:38:37;11.70;91.70
47338;DHT22;33069;51.970;5.892;2022-12-31T04:41:03;11.80;91.80
47338;DHT22;33069;51.970;5.892;2022-12-31T04:43:47;11.70;91.70
47338;DHT22;33069;51.970;5.892;2022-12-31T04:46:15;11.70;91.80
47338;DHT22;33069;51.970;5.892;2022-12-31T04:48:42;11.90;91.90
47338;DHT22;33069;51.970;5.892;2022-12-31T04:51:08;11.70;91.80
47338;DHT22;33069;51.970;5.892;2022-12-31T04:53:33;11.70;91.80
47338;DHT22;33069;51.970;5.892;2022-12-31T04:55:59;11.70;91.80
47338;DHT22;33069;51.970;5.892;2022-12-31T04:58:25;11.60;91.80
47338;DHT22;33069;51.970;5.892;2022-12-31T05:00:51;11.80;91.90
47338;DHT22;33069;51.970;5.892;2022-12-31T05:03:19;11.90;92.00
47338;DHT22;33069;51.970;5.892;2022-12-31T05:05:45;11.80;91.90
47338;DHT22;33069;51.970;5.892;2022-12-31T05:08:12;11.80;91.90
47338;DHT22;33069;51.970;5.892;2022-12-31T05:10:47;11.90;92.00
47338;DHT22;33069;51.970;5.892;2022-12-31T05:13:14;11.80;91.90
47338;DHT22;33069;51.970;5.892;2022-12-31T05:15:40;12.10;92.00
47338;DHT22;33069;51.970;5.892;2022-12-31T05:18:07;12.00;91.90
47338;DHT22;33069;51.970;5.892;2022-12-31T05:20:33;11.90;91.80
47338;DHT22;33069;51.970;5.892;2022-12-31T05:22:59;11.80;91.70
47338;DHT22;33069;51.970;5.892;2022-12-31T05:25:25;12.00;91.80
47338;DHT22;33069;51.970;5.892;2022-12-31T05:27:51;12.20;91.70
47338;DHT22;33069;51.970;5.892;2022-12-31T05:30:16;11.90;91.60
47338;DHT22;33069;51.970;5.892;2022-12-31T05:32:44;12.00;91.60
47338;DHT22;33069;51.970;5.892;2022-12-31T05:35:09;12.00;91.70
47338;DHT22;33069;51.970;5.892;2022-12-31T05:37:35;12.20;91.80
47338;DHT22;33069;51.970;5.892;2022-12-31T05:40:01;12.10;91.70
47338;DHT22;33069;51.970;5.892;2022-12-31T05:42:27;12.20;91.70
47338;DHT22;33069;51.970;5.892;2022-12-31T05:44:53;12.00;91.70
47338;DHT22;33069;51.970;5.892;2022-12-31T05:47:18;12.20;91.70
47338;DHT22;33069;51.970;5.892;2022-12-31T05:49:44;12.10;91.70
47338;DHT22;33069;51.970;5.892;2022-12-31T05:52:10;12.10;91.70
47338;DHT22;33069;51.970;5.892;2022-12-31T05:54:35;12.20;91.80
47338;DHT22;33069;51.970;5.892;2022-12-31T05:57:02;12.10;91.80
47338;DHT22;33069;51.970;5.892;2022-12-31T05:59:28;12.20;91.80
47338;DHT22;33069;51.970;5.892;2022-12-31T06:01:54;12.00;91.80
47338;DHT22;33069;51.970;5.892;2022-12-31T06:04:20;11.90;91.90
47338;DHT22;33069;51.970;5.892;2022-12-31T06:06:46;12.00;91.90
47338;DHT22;33069;51.970;5.892;2022-12-31T06:09:11;12.20;92.00
47338;DHT22;33069;51.970;5.892;2022-12-31T06:11:37;12.20;92.00
47338;DHT22;33069;51.970;5.892;2022-12-31T06:14:03;12.20;92.00
47338;DHT22;33069;51.970;5.892;2022-12-31T06:16:29;12.20;91.90
47338;DHT22;33069;51.970;5.892;2022-12-31T06:18:54;12.10;91.90
47338;DHT22;33069;51.970;5.892;2022-12-31T06:21:21;12.20;91.90
47338;DHT22;33069;51.970;5.892;2022-12-31T06:23:47;12.00;91.90
47338;DHT22;33069;51.970;5.892;2022-12-31T06:26:14;12.10;91.90
47338;DHT22;33069;51.970;5.892;2022-12-31T06:28:40;12.30;92.00
47338;DHT22;33069;51.970;5.892;2022-12-31T06:31:09;12.40;91.90
47338;DHT22;33069;51.970;5.892;2022-12-31T06:33:35;12.40;91.80
47338;DHT22;33069;51.970;5.892;2022-12-31T06:36:03;12.30;91.80
47338;DHT22;33069;51.970;5.892;2022-12-31T06:38:31;12.30;91.70
47338;DHT22;33069;51.970;5.892;2022-12-31T06:41:01;12.50;91.80
47338;DHT22;33069;51.970;5.892;2022-12-31T06:43:27;12.50;91.80
47338;DHT22;33069;51.970;5.892;2022-12-31T06:45:52;12.60;91.80
47338;DHT22;33069;51.970;5.892;2022-12-31T06:48:18;12.50;91.80
47338;DHT22;33069;51.970;5.892;2022-12-31T06:50:44;12.70;91.90
47338;DHT22;33069;51.970;5.892;2022-12-31T06:53:09;12.70;92.00
47338;DHT22;33069;51.970;5.892;2022-12-31T06:55:36;12.80;92.00
47338;DHT22;33069;51.970;5.892;2022-12-31T06:58:02;13.00;92.10
47338;DHT22;33069;51.970;5.892;2022-12-31T07:00:28;13.00;92.10
47338;DHT22;33069;51.970;5.892;2022-12-31T07:05:57;13.30;92.10
47338;DHT22;33069;51.970;5.892;2022-12-31T07:08:35;13.30;92.10
47338;DHT22;33069;51.970;5.892;2022-12-31T07:11:13;13.30;92.10
47338;DHT22;33069;51.970;5.892;2022-12-31T07:13:52;13.40;92.10
47338;DHT22;33069;51.970;5.892;2022-12-31T07:16:31;13.40;92.00
47338;DHT22;33069;51.970;5.892;2022-12-31T07:21:39;13.20;92.00
47338;DHT22;33069;51.970;5.892;2022-12-31T07:24:06;13.30;92.10
47338;DHT22;33069;51.970;5.892;2022-12-31T07:43:00;13.40;92.30
47338;DHT22;33069;51.970;5.892;2022-12-31T07:45:36;13.30;92.30
47338;DHT22;33069;51.970;5.892;2022-12-31T07:48:23;13.30;92.30
47338;DHT22;33069;51.970;5.892;2022-12-31T07:50:50;13.30;92.30
47338;DHT22;33069;51.970;5.892;2022-12-31T07:53:16;13.20;92.30
47338;DHT22;33069;51.970;5.892;2022-12-31T07:55:42;13.10;92.30
47338;DHT22;33069;51.970;5.892;2022-12-31T07:58:21;13.20;92.40
47338;DHT22;33069;51.970;5.892;2022-12-31T08:00:51;13.20;92.50
47338;DHT22;33069;51.970;5.892;2022-12-31T08:06:24;13.30;92.50
47338;DHT22;33069;51.970;5.892;2022-12-31T08:11:55;13.50;92.60
47338;DHT22;33069;51.970;5.892;2022-12-31T08:14:21;13.50;92.50
47338;DHT22;33069;51.970;5.892;2022-12-31T08:16:47;13.40;92.40
47338;DHT22;33069;51.970;5.892;2022-12-31T08:19:31;13.30;92.40
47338;DHT22;33069;51.970;5.892;2022-12-31T08:41:54;12.80;91.70
47338;DHT22;33069;51.970;5.892;2022-12-31T08:44:09;12.80;91.70
47338;DHT22;33069;51.970;5.892;2022-12-31T08:46:53;12.90;91.50
47338;DHT22;33069;51.970;5.892;2022-12-31T08:49:20;13.00;91.60
47338;DHT22;33069;51.970;5.892;2022-12-31T08:51:46;12.90;91.50
47338;DHT22;33069;51.970;5.892;2022-12-31T08:54:12;12.90;91.60
47338;DHT22;33069;51.970;5.892;2022-12-31T09:02:07;13.00;91.50
47338;DHT22;33069;51.970;5.892;2022-12-31T09:05:03;13.00;91.50
47338;DHT22;33069;51.970;5.892;2022-12-31T09:07:37;13.00;91.50
47338;DHT22;33069;51.970;5.892;2022-12-31T09:10:50;12.90;91.60
47338;DHT22;33069;51.970;5.892;2022-12-31T09:15:46;13.20;91.50
47338;DHT22;33069;51.970;5.892;2022-12-31T09:18:14;13.10;91.40
47338;DHT22;33069;51.970;5.892;2022-12-31T09:20:40;13.20;91.40
47338;DHT22;33069;51.970;5.892;2022-12-31T09:23:06;13.10;91.40
47338;DHT22;33069;51.970;5.892;2022-12-31T09:25:32;13.10;91.40
47338;DHT22;33069;51.970;5.892;2022-12-31T09:31:05;13.40;91.40
47338;DHT22;33069;51.970;5.892;2022-12-31T09:33:41;13.30;91.10
47338;DHT22;33069;51.970;5.892;2022-12-31T09:36:18;13.50;91.00
47338;DHT22;33069;51.970;5.892;2022-12-31T09:56:10;14.00;90.10
47338;DHT22;33069;51.970;5.892;2022-12-31T10:07:04;14.50;89.00
47338;DHT22;33069;51.970;5.892;2022-12-31T10:17:39;14.70;88.00
47338;DHT22;33069;51.970;5.892;2022-12-31T10:30:48;14.80;87.80
47338;DHT22;33069;51.970;5.892;2022-12-31T10:33:35;14.90;87.40
47338;DHT22;33069;51.970;5.892;2022-12-31T10:36:12;14.80;87.40
47338;DHT22;33069;51.970;5.892;2022-12-31T10:39:00;14.90;87.60
47338;DHT22;33069;51.970;5.892;2022-12-31T10:44:44;15.00;87.20
47338;DHT22;33069;51.970;5.892;2022-12-31T10:48:00;15.10;87.20
47338;DHT22;33069;51.970;5.892;2022-12-31T11:16:29;15.30;86.80
47338;DHT22;33069;51.970;5.892;2022-12-31T11:21:49;15.20;86.50
47338;DHT22;33069;51.970;5.892;2022-12-31T11:34:56;15.20;86.60
47338;DHT22;33069;51.970;5.892;2022-12-31T11:59:42;15.40;84.10
47338;DHT22;33069;51.970;5.892;2022-12-31T12:04:36;15.70;82.30
47338;DHT22;33069;51.970;5.892;2022-12-31T12:07:07;15.70;82.40
47338;DHT22;33069;51.970;5.892;2022-12-31T12:09:34;15.80;82.00
47338;DHT22;33069;51.970;5.892;2022-12-31T12:12:03;15.70;81.80
47338;DHT22;33069;51.970;5.892;2022-12-31T12:14:35;15.80;80.90
47338;DHT22;33069;51.970;5.892;2022-12-31T12:17:05;15.80;80.80
47338;DHT22;33069;51.970;5.892;2022-12-31T12:19:33;15.80;80.60
47338;DHT22;33069;51.970;5.892;2022-12-31T12:22:12;15.80;80.40
47338;DHT22;33069;51.970;5.892;2022-12-31T12:24:39;15.80;80.50
47338;DHT22;33069;51.970;5.892;2022-12-31T12:27:20;15.70;81.10
47338;DHT22;33069;51.970;5.892;2022-12-31T12:29:46;15.70;81.80
47338;DHT22;33069;51.970;5.892;2022-12-31T12:32:24;15.60;82.30
47338;DHT22;33069;51.970;5.892;2022-12-31T12:34:50;15.50;82.80
47338;DHT22;33069;51.970;5.892;2022-12-31T12:37:34;15.40;83.40
47338;DHT22;33069;51.970;5.892;2022-12-31T12:40:18;15.40;84.20
47338;DHT22;33069;51.970;5.892;2022-12-31T12:42:49;15.30;84.20
47338;DHT22;33069;51.970;5.892;2022-12-31T12:45:21;15.20;84.70
47338;DHT22;33069;51.970;5.892;2022-12-31T12:47:49;15.20;85.00
47338;DHT22;33069;51.970;5.892;2022-12-31T12:50:20;15.20;84.90
47338;DHT22;33069;51.970;5.892;2022-12-31T13:01:55;15.20;84.60
47338;DHT22;33069;51.970;5.892;2022-12-31T13:10:10;15.30;84.20
47338;DHT22;33069;51.970;5.892;2022-12-31T13:12:52;15.30;83.90
47338;DHT22;33069;51.970;5.892;2022-12-31T13:15:36;15.20;84.30
47338;DHT22;33069;51.970;5.892;2022-12-31T13:26:46;15.40;82.80
47338;DHT22;33069;51.970;5.892;2022-12-31T13:29:16;15.50;82.80
47338;DHT22;33069;51.970;5.892;2022-12-31T13:31:43;15.50;82.20
47338;DHT22;33069;51.970;5.892;2022-12-31T13:34:17;15.50;82.10
47338;DHT22;33069;51.970;5.892;2022-12-31T13:36:46;15.50;82.40
47338;DHT22;33069;51.970;5.892;2022-12-31T13:39:19;15.40;82.90
47338;DHT22;33069;51.970;5.892;2022-12-31T13:42:11;15.40;83.00
47338;DHT22;33069;51.970;5.892;2022-12-31T13:44:48;15.30;83.10
47338;DHT22;33069;51.970;5.892;2022-12-31T13:50:01;15.20;83.60
47338;DHT22;33069;51.970;5.892;2022-12-31T13:52:37;15.30;83.60
47338;DHT22;33069;51.970;5.892;2022-12-31T13:58:32;15.00;84.80
47338;DHT22;33069;51.970;5.892;2022-12-31T14:01:19;15.00;85.00
47338;DHT22;33069;51.970;5.892;2022-12-31T14:04:02;14.90;85.00
47338;DHT22;33069;51.970;5.892;2022-12-31T14:09:22;15.20;83.90
47338;DHT22;33069;51.970;5.892;2022-12-31T14:12:12;15.10;84.40
47338;DHT22;33069;51.970;5.892;2022-12-31T14:14:48;15.20;84.00
47338;DHT22;33069;51.970;5.892;2022-12-31T14:26:12;15.20;83.20
47338;DHT22;33069;51.970;5.892;2022-12-31T14:28:46;15.20;82.70
47338;DHT22;33069;51.970;5.892;2022-12-31T14:37:07;15.40;79.20
47338;DHT22;33069;51.970;5.892;2022-12-31T14:39:57;15.50;79.10
47338;DHT22;33069;51.970;5.892;2022-12-31T14:53:26;15.70;76.00
47338;DHT22;33069;51.970;5.892;2022-12-31T14:56:02;15.70;75.80
47338;DHT22;33069;51.970;5.892;2022-12-31T15:09:01;15.70;74.70
47338;DHT22;33069;51.970;5.892;2022-12-31T15:20:14;15.90;74.10
47338;DHT22;33069;51.970;5.892;2022-12-31T15:22:46;15.80;73.30
47338;DHT22;33069;51.970;5.892;2022-12-31T15:25:33;15.90;73.30
47338;DHT22;33069;51.970;5.892;2022-12-31T15:28:02;15.80;73.80
47338;DHT22;33069;51.970;5.892;2022-12-31T15:33:06;15.70;74.60
47338;DHT22;33069;51.970;5.892;2022-12-31T15:35:46;15.70;74.10
47338;DHT22;33069;51.970;5.892;2022-12-31T15:40:46;15.70;73.90
47338;DHT22;33069;51.970;5.892;2022-12-31T15:45:51;15.70;73.10
47338;DHT22;33069;51.970;5.892;2022-12-31T15:48:25;15.70;73.40
47338;DHT22;33069;51.970;5.892;2022-12-31T15:50:54;15.80;72.80
47338;DHT22;33069;51.970;5.892;2022-12-31T15:53:41;15.70;73.20
47338;DHT22;33069;51.970;5.892;2022-12-31T15:56:16;15.80;73.00
47338;DHT22;33069;51.970;5.892;2022-12-31T15:58:44;15.80;73.00
47338;DHT22;33069;51.970;5.892;2022-12-31T16:01:22;15.70;73.40
47338;DHT22;33069;51.970;5.892;2022-12-31T16:04:04;15.80;72.60
47338;DHT22;33069;51.970;5.892;2022-12-31T16:06:36;15.70;72.90
47338;DHT22;33069;51.970;5.892;2022-12-31T16:09:04;15.70;73.20
47338;DHT22;33069;51.970;5.892;2022-12-31T16:11:37;15.80;72.90
47338;DHT22;33069;51.970;5.892;2022-12-31T16:14:19;15.70;72.80
47338;DHT22;33069;51.970;5.892;2022-12-31T16:16:51;15.80;72.90
47338;DHT22;33069;51.970;5.892;2022-12-31T16:19:31;15.80;73.00
47338;DHT22;33069;51.970;5.892;2022-12-31T16:22:01;15.80;72.50
47338;DHT22;33069;51.970;5.892;2022-12-31T16:24:31;15.80;72.30
47338;DHT22;33069;51.970;5.892;2022-12-31T16:27:01;15.80;72.40
47338;DHT22;33069;51.970;5.892;2022-12-31T16:29:29;15.80;72.40
47338;DHT22;33069;51.970;5.892;2022-12-31T16:31:55;15.70;72.90
47338;DHT22;33069;51.970;5.892;2022-12-31T16:34:56;15.60;73.20
47338;DHT22;33069;51.970;5.892;2022-12-31T16:37:22;15.70;72.90
47338;DHT22;33069;51.970;5.892;2022-12-31T16:42:24;15.70;72.50
47338;DHT22;33069;51.970;5.892;2022-12-31T16:44:52;15.60;72.60
47338;DHT22;33069;51.970;5.892;2022-12-31T16:47:25;15.70;71.80
47338;DHT22;33069;51.970;5.892;2022-12-31T16:52:41;15.70;71.70
47338;DHT22;33069;51.970;5.892;2022-12-31T16:55:20;15.70;71.00
47338;DHT22;33069;51.970;5.892;2022-12-31T16:57:50;15.70;70.60
47338;DHT22;33069;51.970;5.892;2022-12-31T17:00:18;15.60;71.30
47338;DHT22;33069;51.970;5.892;2022-12-31T17:05:24;15.70;70.80
47338;DHT22;33069;51.970;5.892;2022-12-31T17:07:51;15.60;70.80
47338;DHT22;33069;51.970;5.892;2022-12-31T17:12:51;15.60;70.40
47338;DHT22;33069;51.970;5.892;2022-12-31T17:15:36;15.60;70.50
47338;DHT22;33069;51.970;5.892;2022-12-31T17:18:02;15.50;70.50
47338;DHT22;33069;51.970;5.892;2022-12-31T17:20:31;15.50;70.80
47338;DHT22;33069;51.970;5.892;2022-12-31T17:22:59;15.50;70.50
47338;DHT22;33069;51.970;5.892;2022-12-31T17:25:26;15.50;71.00
47338;DHT22;33069;51.970;5.892;2022-12-31T17:28:02;15.40;71.40
47338;DHT22;33069;51.970;5.892;2022-12-31T17:35:44;15.50;71.20
47338;DHT22;33069;51.970;5.892;2022-12-31T17:38:31;15.20;72.00
47338;DHT22;33069;51.970;5.892;2022-12-31T17:43:36;15.30;71.10
47338;DHT22;33069;51.970;5.892;2022-12-31T17:46:14;15.20;71.70
47338;DHT22;33069;51.970;5.892;2022-12-31T17:48:41;15.20;71.40
47338;DHT22;33069;51.970;5.892;2022-12-31T17:51:07;15.20;71.40
47338;DHT22;33069;51.970;5.892;2022-12-31T17:57:01;15.20;72.00
47338;DHT22;33069;51.970;5.892;2022-12-31T17:59:27;15.20;70.80
47338;DHT22;33069;51.970;5.892;2022-12-31T18:01:59;15.20;71.60
47338;DHT22;33069;51.970;5.892;2022-12-31T18:04:25;15.30;70.80
47338;DHT22;33069;51.970;5.892;2022-12-31T18:06:51;15.10;71.10
47338;DHT22;33069;51.970;5.892;2022-12-31T18:09:17;15.20;71.40
47338;DHT22;33069;51.970;5.892;2022-12-31T18:11:44;15.10;70.40
47338;DHT22;33069;51.970;5.892;2022-12-31T18:14:13;15.10;70.60
47338;DHT22;33069;51.970;5.892;2022-12-31T18:16:39;15.10;70.40
47338;DHT22;33069;51.970;5.892;2022-12-31T18:19:13;15.20;70.10
47338;DHT22;33069;51.970;5.892;2022-12-31T18:21:39;15.20;70.20
47338;DHT22;33069;51.970;5.892;2022-12-31T18:24:10;15.20;69.10
47338;DHT22;33069;51.970;5.892;2022-12-31T18:26:37;15.30;69.30
47338;DHT22;33069;51.970;5.892;2022-12-31T18:29:15;15.30;69.50
47338;DHT22;33069;51.970;5.892;2022-12-31T18:31:45;15.30;70.00
47338;DHT22;33069;51.970;5.892;2022-12-31T18:34:14;15.30;68.70
47338;DHT22;33069;51.970;5.892;2022-12-31T18:36:40;15.30;69.00
47338;DHT22;33069;51.970;5.892;2022-12-31T18:39:06;15.30;67.70
47338;DHT22;33069;51.970;5.892;2022-12-31T18:41:39;15.40;67.30
47338;DHT22;33069;51.970;5.892;2022-12-31T18:44:08;15.40;67.40
47338;DHT22;33069;51.970;5.892;2022-12-31T18:46:34;15.30;67.10
47338;DHT22;33069;51.970;5.892;2022-12-31T18:49:00;15.20;67.50
47338;DHT22;33069;51.970;5.892;2022-12-31T18:51:26;15.30;67.20
47338;DHT22;33069;51.970;5.892;2022-12-31T18:53:53;15.30;66.90
47338;DHT22;33069;51.970;5.892;2022-12-31T18:56:19;15.20;66.70
47338;DHT22;33069;51.970;5.892;2022-12-31T18:58:46;15.20;67.00
47338;DHT22;33069;51.970;5.892;2022-12-31T19:03:56;15.30;65.80
47338;DHT22;33069;51.970;5.892;2022-12-31T19:06:22;15.20;66.20
47338;DHT22;33069;51.970;5.892;2022-12-31T19:08:48;15.30;65.40
47338;DHT22;33069;51.970;5.892;2022-12-31T19:11:14;15.10;65.60
47338;DHT22;33069;51.970;5.892;2022-12-31T19:13:41;15.20;65.40
47338;DHT22;33069;51.970;5.892;2022-12-31T19:16:08;15.20;65.20
47338;DHT22;33069;51.970;5.892;2022-12-31T19:18:34;15.10;65.30
47338;DHT22;33069;51.970;5.892;2022-12-31T19:21:00;15.10;65.20
47338;DHT22;33069;51.970;5.892;2022-12-31T19:23:26;15.20;65.10
47338;DHT22;33069;51.970;5.892;2022-12-31T19:26:14;15.30;64.20
47338;DHT22;33069;51.970;5.892;2022-12-31T19:28:40;15.10;64.70
47338;DHT22;33069;51.970;5.892;2022-12-31T19:31:06;15.20;65.00
47338;DHT22;33069;51.970;5.892;2022-12-31T19:33:32;15.10;64.50
47338;DHT22;33069;51.970;5.892;2022-12-31T19:35:58;15.20;63.80
47338;DHT22;33069;51.970;5.892;2022-12-31T19:38:25;15.30;63.40
47338;DHT22;33069;51.970;5.892;2022-12-31T19:40:52;15.20;64.00
47338;DHT22;33069;51.970;5.892;2022-12-31T19:43:20;15.20;63.90
47338;DHT22;33069;51.970;5.892;2022-12-31T19:45:46;15.20;64.10
47338;DHT22;33069;51.970;5.892;2022-12-31T19:48:15;15.30;62.90
47338;DHT22;33069;51.970;5.892;2022-12-31T19:50:43;15.20;63.50
47338;DHT22;33069;51.970;5.892;2022-12-31T19:53:12;15.10;64.00
47338;DHT22;33069;51.970;5.892;2022-12-31T19:55:38;15.10;64.00
47338;DHT22;33069;51.970;5.892;2022-12-31T19:58:04;15.10;63.50
47338;DHT22;33069;51.970;5.892;2022-12-31T20:00:30;15.00;63.30
47338;DHT22;33069;51.970;5.892;2022-12-31T20:02:55;15.10;63.60
47338;DHT22;33069;51.970;5.892;2022-12-31T20:05:21;15.00;63.50
47338;DHT22;33069;51.970;5.892;2022-12-31T20:07:47;15.00;63.00
47338;DHT22;33069;51.970;5.892;2022-12-31T20:10:13;14.90;63.30
47338;DHT22;33069;51.970;5.892;2022-12-31T20:12:39;15.00;63.50
47338;DHT22;33069;51.970;5.892;2022-12-31T20:15:05;14.90;63.70
47338;DHT22;33069;51.970;5.892;2022-12-31T20:17:31;14.80;64.10
47338;DHT22;33069;51.970;5.892;2022-12-31T20:19:57;15.00;63.40
47338;DHT22;33069;51.970;5.892;2022-12-31T20:22:22;15.00;63.20
47338;DHT22;33069;51.970;5.892;2022-12-31T20:24:48;14.80;64.00
47338;DHT22;33069;51.970;5.892;2022-12-31T20:27:14;15.00;62.40
47338;DHT22;33069;51.970;5.892;2022-12-31T20:29:40;14.90;62.70
47338;DHT22;33069;51.970;5.892;2022-12-31T20:32:05;14.90;63.00
47338;DHT22;33069;51.970;5.892;2022-12-31T20:34:31;14.90;62.60
47338;DHT22;33069;51.970;5.892;2022-12-31T20:36:57;15.00;62.50
47338;DHT22;33069;51.970;5.892;2022-12-31T20:39:23;15.10;62.00
47338;DHT22;33069;51.970;5.892;2022-12-31T20:41:48;15.10;62.10
47338;DHT22;33069;51.970;5.892;2022-12-31T20:44:14;15.20;61.50
47338;DHT22;33069;51.970;5.892;2022-12-31T20:46:40;15.10;61.40